Time;durP1;ratioP1;P1;durP2;ratioP2;P2;SDS_P1;SDS_P2;PMS_P1;PMS_P2;Temp;Humidity;BMP_temperature;BMP_pressure;BME280_temperature;BME280_humidity;BME280_pressure;Samples;Min_cycle;Max_cycle;Signal;HPM_P1;HPM_P2
2021/10/21 00:01:22;;;;;;;4.40;2.47;;;;;;;11.72;85.82;98845.03;4955269;28;20050;-82
2021/10/21 00:03:47;;;;;;;4.47;2.40;;;;;;;11.61;85.69;98824.16;4957097;28;20063;-73
2021/10/21 00:06:13;;;;;;;3.40;2.13;;;;;;;11.52;85.90;98788.38;4958502;28;20063;-72
2021/10/21 00:08:38;;;;;;;3.33;1.90;;;;;;;11.47;86.03;98769.22;4961612;28;20031;-71
2021/10/21 00:11:04;;;;;;;2.77;2.00;;;;;;;11.44;86.03;98756.13;4961602;28;20381;-70
2021/10/21 00:13:29;;;;;;;4.07;1.83;;;;;;;11.40;86.09;98738.72;4961642;29;20082;-70
2021/10/21 00:15:54;;;;;;;3.70;2.37;;;;;;;11.34;86.12;98746.63;4961212;28;20035;-71
2021/10/21 00:18:20;;;;;;;2.77;1.60;;;;;;;11.30;86.00;98752.75;4961154;28;20393;-73
2021/10/21 00:20:45;;;;;;;5.43;1.73;;;;;;;11.24;85.91;98783.38;4961293;29;20034;-69
2021/10/21 00:23:10;;;;;;;3.50;1.40;;;;;;;11.21;85.40;98788.63;4960790;29;20035;-70
2021/10/21 00:25:36;;;;;;;2.60;1.20;;;;;;;11.12;85.51;98749.41;4968244;28;20302;-72
2021/10/21 00:28:01;;;;;;;4.13;1.63;;;;;;;11.04;85.67;98764.31;4961115;29;20034;-72
2021/10/21 00:30:26;;;;;;;4.93;1.50;;;;;;;10.97;84.86;98777.44;4959566;28;20039;-74
2021/10/21 00:32:52;;;;;;;2.90;1.43;;;;;;;10.91;85.03;98766.13;4960581;29;20035;-77
2021/10/21 00:35:17;;;;;;;3.33;1.40;;;;;;;10.83;84.61;98779.28;4958200;29;20039;-74
2021/10/21 00:37:43;;;;;;;2.47;1.23;;;;;;;10.75;85.29;98800.25;4961179;29;20039;-71
2021/10/21 00:40:09;;;;;;;3.47;1.23;;;;;;;10.66;84.98;98777.59;4958145;29;20031;-75
2021/10/21 00:42:37;;;;;;;5.10;1.40;;;;;;;10.62;85.23;98786.34;4960193;29;20357;-69
2021/10/21 00:45:03;;;;;;;6.47;1.70;;;;;;;10.56;84.94;98783.75;4960694;28;20038;-77
2021/10/21 00:47:29;;;;;;;5.77;1.30;;;;;;;10.48;85.13;98772.47;4961345;28;20050;-71
2021/10/21 00:49:54;;;;;;;6.17;1.83;;;;;;;10.44;85.71;98767.25;4960108;29;20225;-70
2021/10/21 00:52:20;;;;;;;8.20;1.70;;;;;;;10.38;85.80;98745.44;4960465;29;20084;-74
2021/10/21 00:54:46;;;;;;;5.60;1.83;;;;;;;10.34;85.81;98746.34;4960727;28;20039;-75
2021/10/21 00:57:13;;;;;;;8.17;1.60;;;;;;;10.28;85.45;98742.84;4961453;28;20317;-78
2021/10/21 00:59:39;;;;;;;9.47;2.10;;;;;;;10.24;85.59;98740.25;4960909;29;20282;-74
2021/10/21 01:02:05;;;;;;;6.13;1.60;;;;;;;10.17;84.74;98752.50;4960447;28;20027;-80
2021/10/21 01:04:31;;;;;;;6.80;1.87;;;;;;;10.11;84.93;98750.78;4938447;29;20035;-82
2021/10/21 01:06:56;;;;;;;6.73;1.30;;;;;;;10.09;85.17;98765.59;4946103;28;20090;-72
2021/10/21 01:09:22;;;;;;;3.73;1.60;;;;;;;10.03;84.09;98749.94;4952153;28;20043;-79
2021/10/21 01:11:52;;;;;;;8.10;1.63;;;;;;;9.99;83.97;98775.22;4964239;28;20658;-81
2021/10/21 01:14:18;;;;;;;6.40;1.57;;;;;;;9.94;83.25;98763.00;4955209;29;20334;-80
2021/10/21 01:16:44;;;;;;;7.17;2.07;;;;;;;9.85;83.75;98761.28;4973101;28;20030;-75
2021/10/21 01:19:14;;;;;;;6.90;1.70;;;;;;;9.78;83.67;98746.50;4966008;28;20037;-80
2021/10/21 01:21:42;;;;;;;9.20;2.00;;;;;;;9.73;83.63;98759.56;4945288;29;20134;-81
2021/10/21 01:24:08;;;;;;;7.27;1.77;;;;;;;9.67;84.27;98741.28;4961325;29;20035;-84
2021/10/21 01:26:33;;;;;;;9.80;1.80;;;;;;;9.65;83.94;98745.66;4961307;28;20102;-80
2021/10/21 01:28:58;;;;;;;12.50;2.90;;;;;;;9.61;84.07;98755.22;4962958;29;20038;-71
2021/10/21 01:31:24;;;;;;;9.10;1.80;;;;;;;9.59;83.27;98755.22;4962525;29;20027;-80
2021/10/21 01:33:49;;;;;;;10.37;2.00;;;;;;;9.60;83.78;98754.34;4962014;28;20351;-69
2021/10/21 01:36:14;;;;;;;9.50;1.77;;;;;;;9.63;82.87;98756.09;4957215;29;20054;-75
2021/10/21 01:38:40;;;;;;;10.67;1.83;;;;;;;9.65;83.53;98761.34;4941826;28;20048;-69
2021/10/21 01:41:05;;;;;;;7.63;1.50;;;;;;;9.65;82.31;98729.97;4942063;29;20091;-72
2021/10/21 01:43:31;;;;;;;5.53;1.20;;;;;;;9.62;82.51;98754.34;4941661;29;20035;-68
2021/10/21 01:45:56;;;;;;;7.07;1.40;;;;;;;9.64;82.30;98736.06;4956647;28;20416;-73
2021/10/21 01:48:22;;;;;;;8.87;2.00;;;;;;;9.66;81.81;98748.28;4960378;29;20027;-70
2021/10/21 01:50:47;;;;;;;7.40;1.43;;;;;;;9.62;82.74;98733.47;4960984;28;20043;-74
2021/10/21 01:53:12;;;;;;;5.07;1.57;;;;;;;9.61;82.30;98745.63;4960770;28;20042;-67
2021/10/21 01:55:39;;;;;;;4.77;1.40;;;;;;;9.58;82.89;98742.16;4960769;29;20049;-68
2021/10/21 01:58:04;;;;;;;5.93;1.50;;;;;;;9.53;82.56;98734.31;4959810;29;20015;-68
2021/10/21 02:00:29;;;;;;;4.63;1.37;;;;;;;9.52;82.73;98735.19;4960023;29;20255;-69
2021/10/21 02:02:55;;;;;;;5.63;1.60;;;;;;;9.51;83.20;98733.47;4960134;29;20038;-71
2021/10/21 02:05:20;;;;;;;5.90;1.23;;;;;;;9.47;82.80;98731.75;4960072;28;20050;-82
2021/10/21 02:07:46;;;;;;;6.60;1.23;;;;;;;9.44;83.23;98729.13;4944181;29;20050;-76
2021/10/21 02:10:14;;;;;;;3.47;1.10;;;;;;;9.40;83.73;98719.56;4960183;28;20058;-75
2021/10/21 02:12:40;;;;;;;3.33;1.20;;;;;;;9.36;83.94;98739.59;4961043;28;20031;-83
2021/10/21 02:15:06;;;;;;;5.60;1.53;;;;;;;9.34;84.11;98717.81;4939969;29;20035;-71
2021/10/21 02:17:32;;;;;;;4.63;1.27;;;;;;;9.30;84.39;98711.72;4941304;28;20043;-74
2021/10/21 02:19:57;;;;;;;3.53;1.30;;;;;;;9.32;84.25;98714.31;4941005;29;20046;-80
2021/10/21 02:22:25;;;;;;;5.77;1.47;;;;;;;9.31;84.26;98700.41;4941738;29;20123;-82
2021/10/21 02:24:51;;;;;;;7.03;1.40;;;;;;;9.31;84.85;98689.97;4947485;29;20114;-75
2021/10/21 02:27:16;;;;;;;4.97;1.50;;;;;;;9.31;84.19;98683.84;4959670;28;20106;-77
2021/10/21 02:29:41;;;;;;;4.93;1.50;;;;;;;9.29;84.71;98689.06;4960783;28;20115;-82
2021/10/21 02:32:07;;;;;;;6.70;1.40;;;;;;;9.32;84.92;98686.47;4959784;28;20122;-82
2021/10/21 02:34:32;;;;;;;6.90;1.20;;;;;;;9.29;84.80;98678.63;4959592;29;20049;-75
2021/10/21 02:36:58;;;;;;;5.13;1.50;;;;;;;9.27;85.05;98693.44;4961521;28;20051;-81
2021/10/21 02:39:23;;;;;;;5.30;1.37;;;;;;;9.30;85.19;98676.91;4960360;29;20397;-81
2021/10/21 02:41:49;;;;;;;10.37;1.50;;;;;;;9.29;85.16;98672.53;4960269;29;20298;-79
2021/10/21 02:44:15;;;;;;;5.60;1.60;;;;;;;9.27;85.17;98671.69;4959943;29;20031;-79
2021/10/21 02:46:40;;;;;;;6.63;1.60;;;;;;;9.25;85.26;98671.69;4960147;28;20050;-81
2021/10/21 02:49:06;;;;;;;4.67;1.10;;;;;;;9.29;85.30;98672.53;4960785;29;20093;-81
2021/10/21 02:51:31;;;;;;;4.93;1.83;;;;;;;9.28;85.50;98670.81;4962072;28;20039;-82
2021/10/21 02:53:56;;;;;;;5.67;1.50;;;;;;;9.31;85.58;98669.06;4962191;28;20404;-81
2021/10/21 02:56:22;;;;;;;6.20;1.47;;;;;;;9.34;85.42;98666.44;4960199;29;20106;-87
2021/10/21 02:58:47;;;;;;;6.27;1.50;;;;;;;9.35;85.79;98665.56;4960360;28;20030;-84
2021/10/21 03:01:13;;;;;;;6.90;1.70;;;;;;;9.35;85.61;98667.31;4960108;29;20031;-84
2021/10/21 03:03:39;;;;;;;5.67;1.57;;;;;;;9.38;85.49;98662.09;4959833;29;20038;-76
2021/10/21 03:06:04;;;;;;;6.83;1.50;;;;;;;9.40;85.45;98664.69;4959596;29;20043;-82
2021/10/21 03:08:30;;;;;;;12.77;1.63;;;;;;;9.42;85.35;98668.16;4961872;28;20050;-79
2021/10/21 03:10:55;;;;;;;6.80;1.60;;;;;;;9.41;85.30;98654.22;4960924;29;20031;-68
2021/10/21 03:13:20;;;;;;;5.47;1.90;;;;;;;9.46;85.05;98660.31;4959314;29;20117;-80
2021/10/21 03:15:46;;;;;;;5.43;1.50;;;;;;;9.52;85.12;98666.41;4944674;29;20301;-80
2021/10/21 03:18:11;;;;;;;4.33;1.50;;;;;;;9.55;85.01;98656.84;4961071;29;20059;-79
2021/10/21 03:20:37;;;;;;;4.90;1.50;;;;;;;9.56;84.94;98661.19;4960474;29;20042;-76
2021/10/21 03:23:02;;;;;;;7.80;1.60;;;;;;;9.56;84.83;98657.69;4959417;29;20270;-76
2021/10/21 03:25:28;;;;;;;5.37;1.63;;;;;;;9.59;85.08;98653.31;4960188;28;20027;-84
2021/10/21 03:27:53;;;;;;;7.27;1.57;;;;;;;9.61;85.24;98662.03;4960971;28;20047;-81
2021/10/21 03:30:19;;;;;;;8.13;1.50;;;;;;;9.62;85.31;98668.13;4959452;28;20042;-77
2021/10/21 03:32:44;;;;;;;7.00;1.70;;;;;;;9.63;85.25;98667.25;4959704;28;20038;-76
2021/10/21 03:35:09;;;;;;;8.47;1.70;;;;;;;9.63;85.01;98664.63;4960169;28;20038;-65
2021/10/21 03:37:36;;;;;;;7.27;1.70;;;;;;;9.62;84.54;98670.75;4959216;28;20038;-75
2021/10/21 03:40:01;;;;;;;7.73;1.60;;;;;;;9.62;85.42;98670.75;4958485;28;20024;-74
2021/10/21 03:42:27;;;;;;;7.00;1.70;;;;;;;9.62;85.64;98676.84;4958640;29;20058;-76
2021/10/21 03:44:54;;;;;;;6.03;1.67;;;;;;;9.62;85.55;98679.47;4958230;28;20055;-73
2021/10/21 03:47:19;;;;;;;7.43;1.97;;;;;;;9.59;86.02;98676.84;4958689;28;20275;-74
2021/10/21 03:49:45;;;;;;;6.73;1.80;;;;;;;9.61;85.90;98682.06;4958058;29;20090;-75
2021/10/21 03:52:10;;;;;;;3.50;2.00;;;;;;;9.59;85.95;98679.44;4958753;29;20031;-80
2021/10/21 03:54:35;;;;;;;5.23;1.83;;;;;;;9.61;86.08;98688.16;4958559;28;20035;-72
2021/10/21 03:57:01;;;;;;;4.93;2.13;;;;;;;9.63;86.14;98696.00;4958092;28;20035;-74
2021/10/21 03:59:27;;;;;;;9.20;1.87;;;;;;;9.64;86.18;98715.16;4958703;28;20050;-73
2021/10/21 04:01:53;;;;;;;7.83;2.43;;;;;;;9.64;86.42;98731.69;4958793;28;20294;-71
2021/10/21 04:04:19;;;;;;;6.97;1.90;;;;;;;9.64;86.24;98731.69;4958590;28;20174;-73
2021/10/21 04:06:45;;;;;;;8.20;3.00;;;;;;;9.67;86.41;98775.25;4958864;28;20118;-81
2021/10/21 04:09:10;;;;;;;6.53;2.07;;;;;;;9.66;86.42;98815.34;4958612;29;20063;-75
2021/10/21 04:11:35;;;;;;;10.67;2.60;;;;;;;9.64;86.30;98820.56;4958560;29;20038;-77
2021/10/21 04:14:01;;;;;;;5.57;1.80;;;;;;;9.62;86.26;98802.28;4957791;29;20337;-77
2021/10/21 04:16:27;;;;;;;7.33;1.77;;;;;;;9.56;85.34;98777.88;4958967;28;20023;-83
2021/10/21 04:18:52;;;;;;;6.83;1.20;;;;;;;9.43;84.06;98797.91;4958354;28;20047;-79
2021/10/21 04:21:17;;;;;;;7.57;1.80;;;;;;;9.30;83.36;98834.50;4959001;29;20031;-71
2021/10/21 04:23:43;;;;;;;9.30;1.27;;;;;;;9.23;84.20;98834.47;4954526;29;20031;-75
2021/10/21 04:26:09;;;;;;;8.03;1.47;;;;;;;9.17;84.33;98884.94;4939846;29;20418;-78
2021/10/21 04:28:34;;;;;;;10.70;1.20;;;;;;;9.12;83.91;98884.03;4938987;29;20038;-71
2021/10/21 04:31:00;;;;;;;3.83;0.97;;;;;;;9.05;82.85;98914.50;4938334;29;20139;-78
2021/10/21 04:33:25;;;;;;;3.70;1.27;;;;;;;8.95;82.93;98931.84;4940661;29;20071;-73
2021/10/21 04:35:51;;;;;;;3.80;0.67;;;;;;;8.92;83.43;98957.94;4958832;29;20034;-73
2021/10/21 04:38:17;;;;;;;4.93;1.10;;;;;;;8.92;84.22;98992.75;4958487;28;20027;-73
2021/10/21 04:40:42;;;;;;;5.17;0.80;;;;;;;8.91;83.83;99009.28;4957611;29;20023;-72
2021/10/21 04:43:07;;;;;;;7.57;1.60;;;;;;;8.89;83.71;99042.34;4958416;28;20314;-74
2021/10/21 04:45:33;;;;;;;5.30;1.13;;;;;;;8.90;83.16;99038.00;4954613;28;20027;-77
2021/10/21 04:47:58;;;;;;;4.90;0.97;;;;;;;8.86;83.08;99073.66;4940714;29;20394;-71
2021/10/21 04:50:25;;;;;;;9.67;1.70;;;;;;;8.86;83.46;99096.25;4956512;28;20438;-70
2021/10/21 04:52:53;;;;;;;12.03;1.93;;;;;;;8.90;83.35;99114.56;4952879;28;20044;-70
2021/10/21 04:55:22;;;;;;;11.73;1.50;;;;;;;8.92;83.97;99141.53;4953369;29;20034;-70
2021/10/21 04:57:48;;;;;;;14.57;2.37;;;;;;;8.91;84.45;99157.22;4961931;28;20034;-68
2021/10/21 05:00:14;;;;;;;15.40;2.53;;;;;;;8.96;84.41;99176.38;4958383;28;20028;-71
2021/10/21 05:02:40;;;;;;;11.00;2.70;;;;;;;8.96;84.64;99199.88;4959722;29;20267;-68
2021/10/21 05:05:06;;;;;;;20.93;2.77;;;;;;;8.99;84.58;99219.91;4961195;28;20039;-69
2021/10/21 05:07:31;;;;;;;12.07;2.30;;;;;;;9.00;83.65;99219.94;4962578;28;20023;-71
2021/10/21 05:09:57;;;;;;;11.77;2.20;;;;;;;8.98;84.03;99258.22;4960628;29;20027;-71
2021/10/21 05:12:23;;;;;;;11.40;2.10;;;;;;;9.01;82.82;99262.56;4961254;28;20038;-69
2021/10/21 05:14:48;;;;;;;18.20;2.13;;;;;;;9.00;82.92;99272.16;4960740;29;20054;-72
2021/10/21 05:17:14;;;;;;;10.17;2.07;;;;;;;8.99;83.24;99291.28;4961643;28;20651;-72
2021/10/21 05:19:39;;;;;;;14.10;2.27;;;;;;;8.95;81.57;99302.56;4960907;29;20409;-72
2021/10/21 05:22:04;;;;;;;11.70;1.90;;;;;;;8.95;82.60;99310.38;4961296;28;20062;-70
2021/10/21 05:24:30;;;;;;;7.53;2.10;;;;;;;8.89;82.71;99334.69;4959840;28;20054;-69
2021/10/21 05:26:55;;;;;;;9.77;1.83;;;;;;;8.88;83.34;99342.50;4957060;29;20027;-70
2021/10/21 05:29:22;;;;;;;20.07;3.93;;;;;;;8.85;83.98;99352.91;4941572;28;20024;-70
2021/10/21 05:31:48;;;;;;;7.93;1.97;;;;;;;8.85;83.34;99352.91;4942514;29;20023;-74
2021/10/21 05:34:14;;;;;;;13.93;2.10;;;;;;;8.91;82.42;99368.66;4942516;28;20024;-78
2021/10/21 05:36:39;;;;;;;10.30;2.10;;;;;;;8.94;82.30;99381.75;4969282;28;20034;-70
2021/10/21 05:39:04;;;;;;;12.03;2.50;;;;;;;9.00;81.43;99386.16;4953775;29;20024;-75
2021/10/21 05:41:30;;;;;;;9.70;2.10;;;;;;;9.12;81.31;99406.31;4960637;28;20032;-70
2021/10/21 05:43:55;;;;;;;13.43;3.07;;;;;;;9.20;79.99;99421.22;4960320;28;20028;-70
2021/10/21 05:46:22;;;;;;;12.60;2.53;;;;;;;9.31;79.14;99444.84;4967107;28;20313;-76
2021/10/21 05:48:47;;;;;;;12.43;3.67;;;;;;;9.42;78.11;99457.13;4966702;28;20337;-73
2021/10/21 05:51:13;;;;;;;11.97;2.70;;;;;;;9.46;78.64;99483.31;4956922;28;20032;-73
2021/10/21 05:53:38;;;;;;;13.40;2.97;;;;;;;9.47;77.70;99486.81;4955242;29;20382;-72
2021/10/21 05:56:04;;;;;;;11.47;2.90;;;;;;;9.59;76.52;99486.06;4961666;28;20027;-72
2021/10/21 05:58:29;;;;;;;12.00;2.87;;;;;;;9.60;76.06;99522.66;4959010;28;20031;-70
2021/10/21 06:00:55;;;;;;;13.43;3.73;;;;;;;9.55;77.25;99518.25;4960393;28;20031;-68
2021/10/21 06:03:20;;;;;;;16.60;2.10;;;;;;;9.47;76.79;99541.69;4958058;29;20055;-68
2021/10/21 06:05:48;;;;;;;15.43;2.60;;;;;;;9.51;73.66;99547.84;4960857;29;20365;-70
2021/10/21 06:08:14;;;;;;;10.73;2.43;;;;;;;9.45;72.84;99573.03;4954944;28;20286;-76
2021/10/21 06:10:39;;;;;;;12.40;3.63;;;;;;;9.52;69.13;99552.19;4960713;29;20042;-69
2021/10/21 06:13:05;;;;;;;9.30;2.00;;;;;;;9.52;67.18;99553.06;4958605;29;20042;-74
2021/10/21 06:15:31;;;;;;;12.93;2.17;;;;;;;9.57;67.91;99563.56;4941375;29;20035;-76
2021/10/21 06:17:57;;;;;;;7.23;2.90;;;;;;;9.62;65.13;99574.97;4940441;29;20035;-80
2021/10/21 06:20:23;;;;;;;17.30;2.20;;;;;;;9.71;67.30;99584.66;4957504;28;20106;-72
2021/10/21 06:22:48;;;;;;;8.30;2.33;;;;;;;9.71;69.05;99590.75;4960661;28;20031;-68
2021/10/21 06:25:14;;;;;;;9.80;2.40;;;;;;;9.61;73.72;99608.03;4960114;28;20341;-67
2021/10/21 06:27:40;;;;;;;7.23;2.70;;;;;;;9.40;75.99;99662.66;4959628;28;20027;-72
2021/10/21 06:30:06;;;;;;;11.30;2.40;;;;;;;9.09;79.28;99647.38;4959488;28;20085;-71
2021/10/21 06:32:32;;;;;;;10.10;2.63;;;;;;;8.91;80.51;99654.09;4959967;28;20043;-68
2021/10/21 06:34:57;;;;;;;9.27;2.60;;;;;;;8.85;81.31;99663.56;4959538;28;20042;-69
2021/10/21 06:37:23;;;;;;;15.37;2.93;;;;;;;8.82;82.70;99684.41;4956321;28;20379;-71
2021/10/21 06:39:54;;;;;;;16.87;3.57;;;;;;;8.82;82.86;99690.47;4951177;28;20114;-70
2021/10/21 06:42:23;;;;;;;24.00;3.97;;;;;;;8.84;82.34;99691.38;4957610;28;20179;-71
2021/10/21 06:44:49;;;;;;;14.97;3.20;;;;;;;8.83;82.40;99718.34;4958921;28;20035;-71
2021/10/21 06:47:14;;;;;;;19.37;2.80;;;;;;;8.80;82.00;99710.47;4959800;28;20027;-72
2021/10/21 06:49:40;;;;;;;15.63;2.93;;;;;;;8.76;81.01;99727.81;4943437;29;20135;-70
2021/10/21 06:52:05;;;;;;;12.67;2.70;;;;;;;8.71;81.73;99731.19;4952497;29;20114;-70
2021/10/21 06:54:30;;;;;;;9.87;2.43;;;;;;;8.70;80.26;99735.53;4959380;28;20050;-71
2021/10/21 06:56:57;;;;;;;11.43;3.07;;;;;;;8.68;79.46;99747.66;4974727;28;20027;-70
2021/10/21 06:59:22;;;;;;;8.73;2.30;;;;;;;8.62;78.59;99760.59;4958551;28;20291;-71
2021/10/21 07:01:47;;;;;;;11.87;2.23;;;;;;;8.51;79.48;99783.88;4959563;28;20039;-70
2021/10/21 07:04:13;;;;;;;10.10;1.97;;;;;;;8.48;79.71;99779.44;4956980;29;20039;-70
2021/10/21 07:06:38;;;;;;;6.13;2.10;;;;;;;8.45;80.00;99828.06;4950856;28;20130;-71
2021/10/21 07:09:04;;;;;;;6.17;1.70;;;;;;;8.45;79.26;99797.66;4944860;29;20035;-70
2021/10/21 07:11:30;;;;;;;10.53;2.10;;;;;;;8.45;77.80;99815.00;4959400;28;20106;-76
2021/10/21 07:13:56;;;;;;;9.53;2.70;;;;;;;8.43;78.91;99825.44;4957687;28;20031;-72
2021/10/21 07:16:21;;;;;;;6.63;2.43;;;;;;;8.37;77.50;99823.59;4954203;28;20420;-71
2021/10/21 07:18:47;;;;;;;9.40;2.00;;;;;;;8.39;77.06;99847.06;4955146;29;20024;-74
2021/10/21 07:21:17;;;;;;;6.00;2.23;;;;;;;8.42;75.79;99851.47;4959107;28;20031;-72
2021/10/21 07:23:42;;;;;;;9.77;1.90;;;;;;;8.48;74.86;99862.91;4959625;28;20038;-70
2021/10/21 07:26:08;;;;;;;9.07;1.90;;;;;;;8.56;74.13;99875.28;4954810;28;20394;-70
2021/10/21 07:28:37;;;;;;;7.07;1.90;;;;;;;8.59;75.83;99868.41;4958510;28;20058;-72
2021/10/21 07:31:03;;;;;;;12.73;2.27;;;;;;;8.61;74.30;99884.97;4959174;28;20039;-67
2021/10/21 07:33:29;;;;;;;7.73;2.00;;;;;;;8.65;75.97;99886.81;4959330;28;20167;-71
2021/10/21 07:35:56;;;;;;;10.77;2.27;;;;;;;8.72;75.49;99907.81;4959081;28;20035;-72
2021/10/21 07:38:22;;;;;;;10.23;2.60;;;;;;;8.86;74.39;99897.66;4942861;29;20024;-68
2021/10/21 07:40:47;;;;;;;9.13;2.53;;;;;;;8.90;75.31;99892.53;4958668;29;20408;-73
2021/10/21 07:43:13;;;;;;;9.43;2.27;;;;;;;8.99;74.24;99894.44;4962120;28;20046;-73
2021/10/21 07:45:39;;;;;;;8.90;2.07;;;;;;;9.01;76.58;99931.03;4977049;28;20117;-67
2021/10/21 07:48:06;;;;;;;9.33;2.07;;;;;;;9.04;75.90;99928.50;4970550;28;20082;-70
2021/10/21 07:50:32;;;;;;;7.53;1.77;;;;;;;9.07;74.92;99947.72;4953278;28;20402;-68
2021/10/21 07:52:57;;;;;;;6.83;1.97;;;;;;;9.06;77.11;99943.34;4940757;28;20115;-67
2021/10/21 07:55:23;;;;;;;9.33;2.17;;;;;;;9.06;75.07;99956.41;4939209;29;20051;-68
2021/10/21 07:57:48;;;;;;;11.33;3.67;;;;;;;9.02;75.21;99959.78;4940508;28;20398;-69
2021/10/21 08:00:14;;;;;;;7.30;1.57;;;;;;;9.00;75.94;99979.78;4947387;29;20023;-69
2021/10/21 08:02:41;;;;;;;7.90;1.90;;;;;;;9.06;74.68;99971.19;4958340;28;20034;-68
2021/10/21 08:05:07;;;;;;;7.17;1.97;;;;;;;9.09;75.97;100002.56;4953716;28;20060;-68
2021/10/21 08:07:43;;;;;;;6.20;1.97;;;;;;;9.14;76.03;100000.94;4961541;28;20259;-69
2021/10/21 08:10:10;;;;;;;8.82;1.83;;;;;;;9.14;76.55;100016.63;4958269;28;20446;-67
2021/10/21 08:12:37;;;;;;;9.17;1.37;;;;;;;9.13;75.96;100024.41;4941729;28;20031;-67
2021/10/21 08:15:03;;;;;;;4.37;1.27;;;;;;;9.09;76.35;100017.38;4949563;29;20039;-68
2021/10/21 08:17:29;;;;;;;8.10;1.97;;;;;;;9.05;77.03;100025.13;4956027;28;20382;-66
2021/10/21 08:19:54;;;;;;;5.27;1.30;;;;;;;9.05;77.73;100030.34;4952705;28;20043;-68
2021/10/21 08:22:20;;;;;;;5.97;1.50;;;;;;;9.01;78.34;100027.63;4958655;28;20038;-69
2021/10/21 08:24:45;;;;;;;7.40;1.43;;;;;;;8.98;78.57;100046.75;4962265;28;20050;-68
2021/10/21 08:27:11;;;;;;;7.90;2.23;;;;;;;8.99;79.53;100038.06;4947426;29;20445;-69
2021/10/21 08:29:36;;;;;;;9.00;1.83;;;;;;;8.97;79.44;100042.34;4959197;28;20114;-69
2021/10/21 08:32:04;;;;;;;10.33;1.70;;;;;;;8.98;79.96;100048.47;4943201;29;20035;-70
2021/10/21 08:34:33;;;;;;;6.63;2.20;;;;;;;8.98;81.13;100053.69;4946681;29;20035;-70
2021/10/21 08:36:59;;;;;;;8.13;1.83;;;;;;;8.99;81.29;100058.06;4961288;29;20414;-72
2021/10/21 08:39:25;;;;;;;10.30;2.03;;;;;;;8.99;81.33;100050.25;4954765;28;20027;-72
2021/10/21 08:41:50;;;;;;;9.43;1.73;;;;;;;9.00;81.81;100065.94;4942811;28;20106;-71
2021/10/21 08:44:16;;;;;;;11.20;2.00;;;;;;;9.03;81.42;100060.78;4948042;29;20050;-70
2021/10/21 08:46:45;;;;;;;11.97;2.40;;;;;;;9.07;81.68;100072.19;4962215;28;20138;-70
2021/10/21 08:49:12;;;;;;;9.90;2.60;;;;;;;9.13;82.53;100072.31;4945059;28;20430;-69
2021/10/21 08:51:37;;;;;;;9.57;1.83;;;;;;;9.18;82.23;100075.03;4958153;29;20066;-69
2021/10/21 08:54:04;;;;;;;8.47;2.30;;;;;;;9.20;81.33;100079.44;4948387;28;20401;-70
2021/10/21 08:56:30;;;;;;;12.57;2.30;;;;;;;9.21;81.89;100088.16;4960302;29;20027;-69
2021/10/21 08:58:56;;;;;;;8.67;2.33;;;;;;;9.24;81.51;100092.56;4960462;28;20078;-73
2021/10/21 09:01:33;;;;;;;8.00;1.80;;;;;;;9.25;80.82;100096.94;4947209;28;20043;-70
2021/10/21 09:09:28;;;;;;;6.27;1.83;;;;;;;9.24;81.08;100130.03;4976988;28;20043;-69
2021/10/21 09:12:14;;;;;;;6.57;1.50;;;;;;;9.23;80.59;100136.09;4961603;28;20350;-69
2021/10/21 09:14:44;;;;;;;9.13;1.95;;;;;;;9.23;81.51;100143.94;4961231;28;20121;-69
2021/10/21 09:17:10;;;;;;;8.03;1.57;;;;;;;9.25;80.89;100137.00;4959939;28;20047;-70
2021/10/21 09:19:37;;;;;;;8.60;1.90;;;;;;;9.27;80.54;100145.75;4961429;28;20034;-68
2021/10/21 09:22:21;;;;;;;7.70;2.10;;;;;;;9.29;80.99;100143.19;4961023;28;20267;-68
2021/10/21 09:24:47;;;;;;;7.47;2.10;;;;;;;9.31;81.69;100146.72;4961192;28;20327;-70
2021/10/21 09:27:15;;;;;;;5.67;1.60;;;;;;;9.32;81.28;100158.94;4957023;28;20027;-69
2021/10/21 09:29:48;;;;;;;8.03;2.07;;;;;;;9.35;80.59;100161.63;4956921;29;20267;-69
2021/10/21 09:32:16;;;;;;;7.93;2.07;;;;;;;9.36;81.20;100179.06;4943422;29;20259;-69
2021/10/21 09:34:45;;;;;;;8.00;1.60;;;;;;;9.41;80.76;100184.41;4953583;29;20083;-70
2021/10/21 09:37:25;;;;;;;4.93;1.40;;;;;;;9.42;80.64;100178.31;4942307;29;20027;-72
2021/10/21 09:39:56;;;;;;;5.10;1.30;;;;;;;9.40;80.22;100193.94;4945618;29;20061;-72
2021/10/21 09:42:29;;;;;;;6.10;1.50;;;;;;;9.40;80.13;100191.34;4961490;28;20082;-68
2021/10/21 09:45:16;;;;;;;8.97;2.03;;;;;;;9.40;78.19;100199.19;4960614;28;20061;-69
2021/10/21 09:47:44;;;;;;;;;;;;;;;9.36;79.66;100205.19;4961233;28;20073;-68
2021/10/21 09:50:28;;;;;;;10.33;1.63;;;;;;;9.34;79.48;100222.56;4960672;28;19915;-71
2021/10/21 09:53:19;;;;;;;12.77;2.20;;;;;;;9.32;79.88;100229.47;4960907;29;20282;-69
2021/10/21 09:56:05;;;;;;;7.20;1.50;;;;;;;9.35;79.77;100225.22;4959887;28;20031;-70
2021/10/21 09:58:35;;;;;;;11.95;1.92;;;;;;;9.41;80.77;100224.47;4941541;29;20094;-69
2021/10/21 10:01:05;;;;;;;8.40;1.77;;;;;;;9.48;80.49;100223.75;4951374;29;20035;-70
2021/10/21 10:03:32;;;;;;;7.13;2.17;;;;;;;9.57;79.87;100219.59;4960753;28;20382;-71
2021/10/21 10:05:58;;;;;;;3.83;1.30;;;;;;;9.67;79.65;100224.19;4960670;28;20027;-68
2021/10/21 10:08:25;;;;;;;12.00;2.20;;;;;;;9.81;78.93;100218.34;4959721;29;20389;-70
2021/10/21 10:10:55;;;;;;;8.50;1.87;;;;;;;9.87;78.15;100247.25;4943977;29;20046;-70
2021/10/21 10:13:21;;;;;;;13.30;1.77;;;;;;;9.88;75.99;100229.00;4959820;29;20106;-69
2021/10/21 10:15:49;;;;;;;4.80;1.20;;;;;;;9.84;73.67;100244.59;4960702;28;20069;-68
2021/10/21 10:18:19;;;;;;;4.40;1.40;;;;;;;9.88;75.35;100225.50;4960244;28;20053;-68
2021/10/21 10:21:02;;;;;;;9.70;2.37;;;;;;;9.95;75.51;100236.97;4960180;28;20135;-68
2021/10/21 10:23:28;;;;;;;3.83;1.13;;;;;;;9.92;75.65;100252.59;4960609;28;20102;-71
2021/10/21 10:25:54;;;;;;;6.87;1.50;;;;;;;9.89;76.00;100253.41;4959598;29;20335;-67
2021/10/21 10:28:19;;;;;;;7.50;1.60;;;;;;;9.86;76.50;100264.72;4959975;28;20062;-68
2021/10/21 10:30:52;;;;;;;10.40;1.63;;;;;;;9.81;74.97;100308.16;4959604;29;20386;-66
2021/10/21 10:33:32;;;;;;;7.20;1.30;;;;;;;9.64;76.59;100319.97;4960612;28;20457;-67
2021/10/21 10:36:27;;;;;;;4.30;1.50;;;;;;;9.36;76.72;100333.22;4979296;28;20026;-70
2021/10/21 10:38:57;;;;;;;9.33;1.43;;;;;;;9.12;78.32;100354.38;4977026;28;20023;-70
2021/10/21 10:41:42;;;;;;;7.60;1.43;;;;;;;8.90;79.35;100370.34;4959362;29;20073;-77
2021/10/21 10:44:35;;;;;;;7.70;1.57;;;;;;;8.77;78.35;100383.88;4959256;29;20042;-68
2021/10/21 10:47:05;;;;;;;6.07;1.47;;;;;;;8.62;78.32;100389.56;4959197;28;20113;-78
2021/10/21 10:49:39;;;;;;;5.77;1.23;;;;;;;8.51;78.34;100404.91;4958792;29;20035;-78
2021/10/21 10:52:12;;;;;;;6.90;1.50;;;;;;;8.36;79.53;100407.91;4959555;28;20057;-71
2021/10/21 10:54:47;;;;;;;7.87;1.40;;;;;;;8.27;80.91;100421.56;4958875;29;20306;-73
2021/10/21 10:57:34;;;;;;;7.57;1.27;;;;;;;8.16;79.29;100430.78;4959445;28;20073;-73
2021/10/21 11:00:44;;;;;;;4.40;1.20;;;;;;;8.10;79.50;100454.94;4958356;28;20062;-70
2021/10/21 11:03:10;;;;;;;3.80;1.03;;;;;;;8.03;78.48;100438.19;4959509;28;20034;-81
2021/10/21 11:05:45;;;;;;;3.43;1.70;;;;;;;7.95;78.54;100445.78;4958631;29;20098;-72
2021/10/21 11:08:12;;;;;;;4.23;1.30;;;;;;;7.92;79.03;100466.53;4959248;28;20042;-71
2021/10/21 11:10:40;;;;;;;4.80;1.17;;;;;;;7.90;75.78;100469.94;4959693;28;20031;-69
2021/10/21 11:13:40;;;;;;;8.50;1.57;;;;;;;7.84;79.55;100466.28;4958403;29;20031;-71
2021/10/21 11:16:34;;;;;;;4.90;1.43;;;;;;;7.84;80.04;100471.50;4958767;28;20146;-69
2021/10/21 11:18:59;;;;;;;7.80;1.70;;;;;;;7.84;79.35;100479.31;4959237;28;20069;-71
2021/10/21 11:21:54;;;;;;;5.57;1.77;;;;;;;7.83;79.04;100487.97;4958570;29;20058;-68
2021/10/21 11:24:49;;;;;;;6.43;1.73;;;;;;;7.86;79.17;100491.50;4958655;29;20050;-66
2021/10/21 11:27:25;;;;;;;7.30;1.70;;;;;;;7.94;78.68;100492.66;4959134;29;20027;-69
2021/10/21 11:29:52;;;;;;;6.05;2.38;;;;;;;8.03;77.82;100498.16;4954113;28;20056;-71
2021/10/21 11:32:19;;;;;;;8.07;1.67;;;;;;;8.10;78.30;100501.88;4947169;29;20422;-68
2021/10/21 11:34:48;;;;;;;7.97;1.70;;;;;;;8.23;76.90;100505.78;4958865;28;20031;-72
2021/10/21 11:37:14;;;;;;;8.63;1.53;;;;;;;8.30;76.96;100517.28;4958514;28;20082;-70
2021/10/21 11:39:40;;;;;;;7.50;1.53;;;;;;;8.37;76.03;100520.16;4954380;29;20031;-68
2021/10/21 11:42:11;;;;;;;5.37;1.53;;;;;;;8.47;75.68;100510.00;4954938;29;20023;-69
2021/10/21 11:44:38;;;;;;;6.03;1.30;;;;;;;8.55;74.52;100515.50;4958239;28;20073;-68